sensor_id;sensor_type;location;lat;lon;timestamp;P1;durP1;ratioP1;P2;durP2;ratioP2
25559;SDS011;13450;49.374;8.584;2023-08-06T00:01:33;3.45;;;1.63;;
25559;SDS011;13450;49.374;8.584;2023-08-06T00:03:58;3.00;;;1.70;;
25559;SDS011;13450;49.374;8.584;2023-08-06T00:06:25;2.90;;;1.48;;
25559;SDS011;13450;49.374;8.584;2023-08-06T00:08:50;3.15;;;1.50;;
25559;SDS011;13450;49.374;8.584;2023-08-06T00:11:15;3.05;;;1.35;;
25559;SDS011;13450;49.374;8.584;2023-08-06T00:13:40;3.70;;;1.50;;
25559;SDS011;13450;49.374;8.584;2023-08-06T00:16:09;4.25;;;1.40;;
25559;SDS011;13450;49.374;8.584;2023-08-06T00:18:37;4.18;;;1.30;;
25559;SDS011;13450;49.374;8.584;2023-08-06T00:21:05;3.40;;;1.60;;
25559;SDS011;13450;49.374;8.584;2023-08-06T00:23:30;6.10;;;1.65;;
25559;SDS011;13450;49.374;8.584;2023-08-06T00:25:58;3.70;;;1.70;;
25559;SDS011;13450;49.374;8.584;2023-08-06T00:28:28;4.60;;;1.50;;
25559;SDS011;13450;49.374;8.584;2023-08-06T00:30:56;4.18;;;1.92;;
25559;SDS011;13450;49.374;8.584;2023-08-06T00:33:22;2.97;;;1.52;;
25559;SDS011;13450;49.374;8.584;2023-08-06T00:35:48;2.92;;;1.48;;
25559;SDS011;13450;49.374;8.584;2023-08-06T00:38:13;3.20;;;1.40;;
25559;SDS011;13450;49.374;8.584;2023-08-06T00:40:38;2.97;;;1.40;;
25559;SDS011;13450;49.374;8.584;2023-08-06T00:43:04;2.95;;;1.38;;
25559;SDS011;13450;49.374;8.584;2023-08-06T00:45:29;3.85;;;1.52;;
25559;SDS011;13450;49.374;8.584;2023-08-06T00:50:29;3.60;;;1.60;;
25559;SDS011;13450;49.374;8.584;2023-08-06T00:52:54;3.40;;;1.65;;
25559;SDS011;13450;49.374;8.584;2023-08-06T00:55:20;4.85;;;1.73;;
25559;SDS011;13450;49.374;8.584;2023-08-06T00:57:45;3.95;;;1.60;;
25559;SDS011;13450;49.374;8.584;2023-08-06T01:00:14;3.83;;;1.60;;
25559;SDS011;13450;49.374;8.584;2023-08-06T01:02:39;3.20;;;1.73;;
25559;SDS011;13450;49.374;8.584;2023-08-06T01:05:05;2.97;;;1.50;;
25559;SDS011;13450;49.374;8.584;2023-08-06T01:16:08;2.55;;;1.38;;
25559;SDS011;13450;49.374;8.584;2023-08-06T01:18:36;4.95;;;1.80;;
25559;SDS011;13450;49.374;8.584;2023-08-06T01:21:04;6.03;;;1.27;;
25559;SDS011;13450;49.374;8.584;2023-08-06T01:23:29;3.08;;;1.33;;
25559;SDS011;13450;49.374;8.584;2023-08-06T01:26:01;3.05;;;1.58;;
25559;SDS011;13450;49.374;8.584;2023-08-06T01:28:44;6.57;;;1.85;;
25559;SDS011;13450;49.374;8.584;2023-08-06T01:31:32;3.03;;;1.40;;
25559;SDS011;13450;49.374;8.584;2023-08-06T01:34:05;3.33;;;1.42;;
25559;SDS011;13450;49.374;8.584;2023-08-06T01:36:34;3.72;;;1.30;;
25559;SDS011;13450;49.374;8.584;2023-08-06T01:39:01;2.65;;;1.30;;
25559;SDS011;13450;49.374;8.584;2023-08-06T01:41:26;2.88;;;1.38;;
25559;SDS011;13450;49.374;8.584;2023-08-06T01:43:51;2.80;;;1.40;;
25559;SDS011;13450;49.374;8.584;2023-08-06T01:46:16;2.85;;;1.30;;
25559;SDS011;13450;49.374;8.584;2023-08-06T01:48:42;3.88;;;1.30;;
25559;SDS011;13450;49.374;8.584;2023-08-06T01:51:08;3.38;;;1.52;;
25559;SDS011;13450;49.374;8.584;2023-08-06T01:53:33;3.42;;;1.48;;
25559;SDS011;13450;49.374;8.584;2023-08-06T01:55:59;3.97;;;1.20;;
25559;SDS011;13450;49.374;8.584;2023-08-06T01:58:24;3.40;;;1.40;;
25559;SDS011;13450;49.374;8.584;2023-08-06T02:00:50;3.33;;;1.40;;
25559;SDS011;13450;49.374;8.584;2023-08-06T02:03:17;2.97;;;1.48;;
25559;SDS011;13450;49.374;8.584;2023-08-06T02:05:42;2.40;;;1.10;;
25559;SDS011;13450;49.374;8.584;2023-08-06T02:08:08;3.45;;;1.50;;
25559;SDS011;13450;49.374;8.584;2023-08-06T02:10:33;5.05;;;1.35;;
25559;SDS011;13450;49.374;8.584;2023-08-06T02:12:59;3.45;;;1.33;;
25559;SDS011;13450;49.374;8.584;2023-08-06T02:15:24;3.38;;;1.52;;
25559;SDS011;13450;49.374;8.584;2023-08-06T02:17:50;4.10;;;1.30;;
25559;SDS011;13450;49.374;8.584;2023-08-06T02:20:15;4.13;;;1.50;;
25559;SDS011;13450;49.374;8.584;2023-08-06T02:22:43;3.33;;;1.40;;
25559;SDS011;13450;49.374;8.584;2023-08-06T02:25:08;5.13;;;1.20;;
25559;SDS011;13450;49.374;8.584;2023-08-06T02:27:33;2.80;;;1.20;;
25559;SDS011;13450;49.374;8.584;2023-08-06T02:30:00;3.20;;;1.40;;
25559;SDS011;13450;49.374;8.584;2023-08-06T02:32:27;4.35;;;1.45;;
25559;SDS011;13450;49.374;8.584;2023-08-06T02:34:54;3.53;;;1.50;;
25559;SDS011;13450;49.374;8.584;2023-08-06T02:37:19;3.00;;;1.30;;
25559;SDS011;13450;49.374;8.584;2023-08-06T02:39:47;3.03;;;1.23;;
25559;SDS011;13450;49.374;8.584;2023-08-06T02:42:12;2.13;;;1.10;;
25559;SDS011;13450;49.374;8.584;2023-08-06T02:44:37;3.00;;;1.40;;
25559;SDS011;13450;49.374;8.584;2023-08-06T02:47:05;2.78;;;1.10;;
25559;SDS011;13450;49.374;8.584;2023-08-06T02:49:33;2.70;;;1.20;;
25559;SDS011;13450;49.374;8.584;2023-08-06T02:51:58;4.20;;;1.02;;
25559;SDS011;13450;49.374;8.584;2023-08-06T02:54:23;3.67;;;1.20;;
25559;SDS011;13450;49.374;8.584;2023-08-06T02:56:49;3.00;;;1.20;;
25559;SDS011;13450;49.374;8.584;2023-08-06T02:59:15;2.42;;;1.13;;
25559;SDS011;13450;49.374;8.584;2023-08-06T03:01:42;3.33;;;1.10;;
25559;SDS011;13450;49.374;8.584;2023-08-06T03:04:07;1.73;;;0.77;;
25559;SDS011;13450;49.374;8.584;2023-08-06T03:06:33;4.05;;;1.00;;
25559;SDS011;13450;49.374;8.584;2023-08-06T03:08:58;4.10;;;1.05;;
25559;SDS011;13450;49.374;8.584;2023-08-06T03:11:23;2.67;;;1.13;;
25559;SDS011;13450;49.374;8.584;2023-08-06T03:13:49;3.08;;;0.98;;
25559;SDS011;13450;49.374;8.584;2023-08-06T03:16:14;3.42;;;0.95;;
25559;SDS011;13450;49.374;8.584;2023-08-06T03:18:40;2.53;;;0.88;;
25559;SDS011;13450;49.374;8.584;2023-08-06T03:21:07;4.80;;;1.27;;
25559;SDS011;13450;49.374;8.584;2023-08-06T03:23:33;3.85;;;1.10;;
25559;SDS011;13450;49.374;8.584;2023-08-06T03:26:04;2.70;;;0.90;;
25559;SDS011;13450;49.374;8.584;2023-08-06T03:28:32;2.15;;;0.82;;
25559;SDS011;13450;49.374;8.584;2023-08-06T03:31:06;2.67;;;0.95;;
25559;SDS011;13450;49.374;8.584;2023-08-06T03:33:33;2.65;;;1.00;;
25559;SDS011;13450;49.374;8.584;2023-08-06T03:35:59;3.05;;;1.10;;
25559;SDS011;13450;49.374;8.584;2023-08-06T03:38:24;4.25;;;1.10;;
25559;SDS011;13450;49.374;8.584;2023-08-06T03:40:52;4.30;;;0.90;;
25559;SDS011;13450;49.374;8.584;2023-08-06T03:43:18;2.72;;;1.02;;
25559;SDS011;13450;49.374;8.584;2023-08-06T03:45:43;2.88;;;1.15;;
25559;SDS011;13450;49.374;8.584;2023-08-06T03:48:09;3.17;;;1.08;;
25559;SDS011;13450;49.374;8.584;2023-08-06T03:50:34;2.30;;;0.95;;
25559;SDS011;13450;49.374;8.584;2023-08-06T03:53:00;2.53;;;1.02;;
25559;SDS011;13450;49.374;8.584;2023-08-06T03:55:27;2.95;;;1.02;;
25559;SDS011;13450;49.374;8.584;2023-08-06T03:57:53;3.42;;;1.40;;
25559;SDS011;13450;49.374;8.584;2023-08-06T04:00:18;2.05;;;1.05;;
25559;SDS011;13450;49.374;8.584;2023-08-06T04:06:06;2.63;;;1.00;;
25559;SDS011;13450;49.374;8.584;2023-08-06T04:08:33;2.13;;;0.90;;
25559;SDS011;13450;49.374;8.584;2023-08-06T04:10:59;2.53;;;0.90;;
25559;SDS011;13450;49.374;8.584;2023-08-06T04:13:24;5.28;;;1.10;;
25559;SDS011;13450;49.374;8.584;2023-08-06T04:15:49;3.00;;;1.00;;
25559;SDS011;13450;49.374;8.584;2023-08-06T04:18:15;2.80;;;0.85;;
25559;SDS011;13450;49.374;8.584;2023-08-06T04:20:47;2.03;;;0.60;;
25559;SDS011;13450;49.374;8.584;2023-08-06T04:23:14;1.95;;;0.70;;
25559;SDS011;13450;49.374;8.584;2023-08-06T04:25:40;2.13;;;0.70;;
25559;SDS011;13450;49.374;8.584;2023-08-06T04:28:05;3.42;;;0.75;;
25559;SDS011;13450;49.374;8.584;2023-08-06T04:30:30;2.55;;;0.73;;
25559;SDS011;13450;49.374;8.584;2023-08-06T04:32:59;1.65;;;0.60;;
25559;SDS011;13450;49.374;8.584;2023-08-06T04:35:24;4.32;;;0.70;;
25559;SDS011;13450;49.374;8.584;2023-08-06T04:37:50;5.32;;;1.10;;
25559;SDS011;13450;49.374;8.584;2023-08-06T04:40:15;3.20;;;0.75;;
25559;SDS011;13450;49.374;8.584;2023-08-06T04:45:56;1.63;;;0.70;;
25559;SDS011;13450;49.374;8.584;2023-08-06T04:48:21;1.15;;;0.50;;
25559;SDS011;13450;49.374;8.584;2023-08-06T04:50:48;2.40;;;0.80;;
25559;SDS011;13450;49.374;8.584;2023-08-06T04:53:15;3.22;;;0.80;;
25559;SDS011;13450;49.374;8.584;2023-08-06T04:55:40;2.75;;;0.85;;
25559;SDS011;13450;49.374;8.584;2023-08-06T04:58:06;1.88;;;0.70;;
25559;SDS011;13450;49.374;8.584;2023-08-06T05:00:31;2.92;;;0.77;;
25559;SDS011;13450;49.374;8.584;2023-08-06T05:02:59;2.15;;;0.57;;
25559;SDS011;13450;49.374;8.584;2023-08-06T05:05:25;4.57;;;0.80;;
25559;SDS011;13450;49.374;8.584;2023-08-06T05:07:50;2.53;;;0.75;;
25559;SDS011;13450;49.374;8.584;2023-08-06T05:10:16;2.33;;;0.90;;
25559;SDS011;13450;49.374;8.584;2023-08-06T05:12:41;2.95;;;0.60;;
25559;SDS011;13450;49.374;8.584;2023-08-06T05:15:09;2.70;;;0.73;;
25559;SDS011;13450;49.374;8.584;2023-08-06T05:17:35;2.92;;;0.70;;
25559;SDS011;13450;49.374;8.584;2023-08-06T05:20:03;2.38;;;0.60;;
25559;SDS011;13450;49.374;8.584;2023-08-06T05:22:29;2.10;;;0.60;;
25559;SDS011;13450;49.374;8.584;2023-08-06T05:24:54;4.03;;;0.63;;
25559;SDS011;13450;49.374;8.584;2023-08-06T05:27:21;2.92;;;0.68;;
25559;SDS011;13450;49.374;8.584;2023-08-06T05:29:47;3.95;;;0.60;;
25559;SDS011;13450;49.374;8.584;2023-08-06T05:32:13;1.58;;;0.50;;
25559;SDS011;13450;49.374;8.584;2023-08-06T05:34:38;2.70;;;0.73;;
25559;SDS011;13450;49.374;8.584;2023-08-06T05:37:06;2.03;;;0.60;;
25559;SDS011;13450;49.374;8.584;2023-08-06T05:39:34;2.55;;;0.63;;
25559;SDS011;13450;49.374;8.584;2023-08-06T05:41:59;1.95;;;0.77;;
25559;SDS011;13450;49.374;8.584;2023-08-06T05:44:28;0.63;;;0.35;;
25559;SDS011;13450;49.374;8.584;2023-08-06T05:46:53;1.73;;;0.57;;
25559;SDS011;13450;49.374;8.584;2023-08-06T05:49:20;2.30;;;0.55;;
25559;SDS011;13450;49.374;8.584;2023-08-06T05:51:46;1.90;;;0.60;;
25559;SDS011;13450;49.374;8.584;2023-08-06T05:54:13;3.40;;;0.70;;
25559;SDS011;13450;49.374;8.584;2023-08-06T05:56:39;3.95;;;0.60;;
25559;SDS011;13450;49.374;8.584;2023-08-06T05:59:04;2.70;;;0.60;;
25559;SDS011;13450;49.374;8.584;2023-08-06T06:01:29;3.13;;;0.60;;
25559;SDS011;13450;49.374;8.584;2023-08-06T06:03:55;1.80;;;0.40;;
25559;SDS011;13450;49.374;8.584;2023-08-06T06:06:20;1.95;;;0.40;;
25559;SDS011;13450;49.374;8.584;2023-08-06T06:08:45;2.50;;;0.63;;
25559;SDS011;13450;49.374;8.584;2023-08-06T06:11:11;2.33;;;0.50;;
25559;SDS011;13450;49.374;8.584;2023-08-06T06:13:36;1.20;;;0.43;;
25559;SDS011;13450;49.374;8.584;2023-08-06T06:16:01;1.75;;;0.47;;
25559;SDS011;13450;49.374;8.584;2023-08-06T06:18:30;4.00;;;0.60;;
25559;SDS011;13450;49.374;8.584;2023-08-06T06:20:55;3.05;;;0.50;;
25559;SDS011;13450;49.374;8.584;2023-08-06T06:23:21;1.63;;;0.50;;
25559;SDS011;13450;49.374;8.584;2023-08-06T06:25:51;1.45;;;0.30;;
25559;SDS011;13450;49.374;8.584;2023-08-06T06:28:19;1.15;;;0.45;;
25559;SDS011;13450;49.374;8.584;2023-08-06T06:30:44;4.90;;;0.45;;
25559;SDS011;13450;49.374;8.584;2023-08-06T06:33:10;1.33;;;0.50;;
25559;SDS011;13450;49.374;8.584;2023-08-06T06:35:35;5.57;;;0.50;;
25559;SDS011;13450;49.374;8.584;2023-08-06T06:38:00;2.72;;;0.63;;
25559;SDS011;13450;49.374;8.584;2023-08-06T06:40:26;5.72;;;0.50;;
25559;SDS011;13450;49.374;8.584;2023-08-06T06:42:51;2.03;;;0.52;;
25559;SDS011;13450;49.374;8.584;2023-08-06T06:45:16;1.13;;;0.30;;
25559;SDS011;13450;49.374;8.584;2023-08-06T06:47:42;3.60;;;0.40;;
25559;SDS011;13450;49.374;8.584;2023-08-06T06:50:10;0.75;;;0.40;;
25559;SDS011;13450;49.374;8.584;2023-08-06T06:52:38;2.15;;;0.45;;
25559;SDS011;13450;49.374;8.584;2023-08-06T06:55:03;1.85;;;0.50;;
25559;SDS011;13450;49.374;8.584;2023-08-06T06:57:29;1.85;;;0.40;;
25559;SDS011;13450;49.374;8.584;2023-08-06T06:59:54;0.65;;;0.30;;
25559;SDS011;13450;49.374;8.584;2023-08-06T07:02:22;2.57;;;0.60;;
25559;SDS011;13450;49.374;8.584;2023-08-06T07:04:49;2.10;;;0.40;;
25559;SDS011;13450;49.374;8.584;2023-08-06T07:07:15;1.48;;;0.30;;
25559;SDS011;13450;49.374;8.584;2023-08-06T07:09:40;1.05;;;0.40;;
25559;SDS011;13450;49.374;8.584;2023-08-06T07:12:06;1.70;;;0.43;;
25559;SDS011;13450;49.374;8.584;2023-08-06T07:14:31;3.15;;;0.47;;
25559;SDS011;13450;49.374;8.584;2023-08-06T07:16:56;1.15;;;0.30;;
25559;SDS011;13450;49.374;8.584;2023-08-06T07:19:23;1.80;;;0.40;;
25559;SDS011;13450;49.374;8.584;2023-08-06T07:21:48;0.68;;;0.32;;
25559;SDS011;13450;49.374;8.584;2023-08-06T07:24:13;1.85;;;0.30;;
25559;SDS011;13450;49.374;8.584;2023-08-06T07:26:39;0.38;;;0.20;;
25559;SDS011;13450;49.374;8.584;2023-08-06T07:29:04;2.30;;;0.20;;
25559;SDS011;13450;49.374;8.584;2023-08-06T07:31:29;0.75;;;0.25;;
25559;SDS011;13450;49.374;8.584;2023-08-06T07:33:55;2.38;;;0.30;;
25559;SDS011;13450;49.374;8.584;2023-08-06T07:36:20;1.73;;;0.30;;
25559;SDS011;13450;49.374;8.584;2023-08-06T07:38:45;2.08;;;0.30;;
25559;SDS011;13450;49.374;8.584;2023-08-06T07:41:11;0.70;;;0.20;;
25559;SDS011;13450;49.374;8.584;2023-08-06T07:43:36;0.22;;;0.17;;
25559;SDS011;13450;49.374;8.584;2023-08-06T07:46:01;1.00;;;0.20;;
25559;SDS011;13450;49.374;8.584;2023-08-06T07:48:27;0.60;;;0.28;;
25559;SDS011;13450;49.374;8.584;2023-08-06T07:50:56;0.28;;;0.17;;
25559;SDS011;13450;49.374;8.584;2023-08-06T07:53:22;1.98;;;0.40;;
25559;SDS011;13450;49.374;8.584;2023-08-06T07:55:51;1.73;;;0.40;;
25559;SDS011;13450;49.374;8.584;2023-08-06T07:58:18;1.58;;;0.30;;
25559;SDS011;13450;49.374;8.584;2023-08-06T08:00:44;0.95;;;0.30;;
25559;SDS011;13450;49.374;8.584;2023-08-06T08:03:14;1.02;;;0.28;;
25559;SDS011;13450;49.374;8.584;2023-08-06T08:05:40;1.65;;;0.20;;
25559;SDS011;13450;49.374;8.584;2023-08-06T08:08:09;1.77;;;0.43;;
25559;SDS011;13450;49.374;8.584;2023-08-06T08:10:34;0.63;;;0.20;;
25559;SDS011;13450;49.374;8.584;2023-08-06T08:13:01;0.32;;;0.10;;
25559;SDS011;13450;49.374;8.584;2023-08-06T08:15:28;0.45;;;0.15;;
25559;SDS011;13450;49.374;8.584;2023-08-06T08:17:54;0.82;;;0.20;;
25559;SDS011;13450;49.374;8.584;2023-08-06T08:20:20;1.20;;;0.30;;
25559;SDS011;13450;49.374;8.584;2023-08-06T08:22:45;0.68;;;0.13;;
25559;SDS011;13450;49.374;8.584;2023-08-06T08:25:13;0.35;;;0.20;;
25559;SDS011;13450;49.374;8.584;2023-08-06T08:27:39;0.35;;;0.20;;
25559;SDS011;13450;49.374;8.584;2023-08-06T08:30:04;0.60;;;0.30;;
25559;SDS011;13450;49.374;8.584;2023-08-06T08:32:32;0.40;;;0.20;;
25559;SDS011;13450;49.374;8.584;2023-08-06T08:34:57;0.85;;;0.10;;
25559;SDS011;13450;49.374;8.584;2023-08-06T08:37:25;0.63;;;0.30;;
25559;SDS011;13450;49.374;8.584;2023-08-06T08:39:50;0.80;;;0.30;;
25559;SDS011;13450;49.374;8.584;2023-08-06T08:42:15;0.35;;;0.20;;
25559;SDS011;13450;49.374;8.584;2023-08-06T08:44:44;0.43;;;0.13;;
25559;SDS011;13450;49.374;8.584;2023-08-06T08:47:10;1.38;;;0.47;;
25559;SDS011;13450;49.374;8.584;2023-08-06T08:49:38;0.45;;;0.20;;
25559;SDS011;13450;49.374;8.584;2023-08-06T08:52:07;0.68;;;0.20;;
25559;SDS011;13450;49.374;8.584;2023-08-06T08:54:35;0.30;;;0.28;;
25559;SDS011;13450;49.374;8.584;2023-08-06T08:57:03;0.80;;;0.20;;
25559;SDS011;13450;49.374;8.584;2023-08-06T08:59:29;0.20;;;0.10;;
25559;SDS011;13450;49.374;8.584;2023-08-06T09:01:54;0.65;;;0.20;;
25559;SDS011;13450;49.374;8.584;2023-08-06T09:04:20;0.95;;;0.40;;
25559;SDS011;13450;49.374;8.584;2023-08-06T09:06:49;0.88;;;0.28;;
25559;SDS011;13450;49.374;8.584;2023-08-06T09:09:16;0.13;;;0.13;;
25559;SDS011;13450;49.374;8.584;2023-08-06T09:11:57;0.22;;;0.10;;
25559;SDS011;13450;49.374;8.584;2023-08-06T09:14:27;0.30;;;0.10;;
25559;SDS011;13450;49.374;8.584;2023-08-06T09:16:54;0.43;;;0.15;;
25559;SDS011;13450;49.374;8.584;2023-08-06T09:19:20;0.30;;;0.13;;
25559;SDS011;13450;49.374;8.584;2023-08-06T09:21:45;0.08;;;0.08;;
25559;SDS011;13450;49.374;8.584;2023-08-06T09:24:14;0.55;;;0.10;;
25559;SDS011;13450;49.374;8.584;2023-08-06T09:26:41;0.20;;;0.10;;
25559;SDS011;13450;49.374;8.584;2023-08-06T09:29:07;0.08;;;0.08;;
25559;SDS011;13450;49.374;8.584;2023-08-06T09:31:40;0.47;;;0.30;;
25559;SDS011;13450;49.374;8.584;2023-08-06T09:34:10;0.28;;;0.10;;
25559;SDS011;13450;49.374;8.584;2023-08-06T09:36:47;0.28;;;0.10;;
25559;SDS011;13450;49.374;8.584;2023-08-06T09:39:14;0.30;;;0.30;;
25559;SDS011;13450;49.374;8.584;2023-08-06T09:41:41;0.35;;;0.20;;
25559;SDS011;13450;49.374;8.584;2023-08-06T09:47:05;0.15;;;0.10;;
25559;SDS011;13450;49.374;8.584;2023-08-06T09:52:04;0.52;;;0.20;;
25559;SDS011;13450;49.374;8.584;2023-08-06T09:54:30;0.10;;;0.10;;
25559;SDS011;13450;49.374;8.584;2023-08-06T09:56:57;0.35;;;0.10;;
25559;SDS011;13450;49.374;8.584;2023-08-06T09:59:23;0.95;;;0.10;;
25559;SDS011;13450;49.374;8.584;2023-08-06T10:01:49;0.57;;;0.20;;
25559;SDS011;13450;49.374;8.584;2023-08-06T10:04:16;0.10;;;0.10;;
25559;SDS011;13450;49.374;8.584;2023-08-06T10:06:42;0.30;;;0.20;;
25559;SDS011;13450;49.374;8.584;2023-08-06T10:09:11;0.30;;;0.30;;
25559;SDS011;13450;49.374;8.584;2023-08-06T10:11:37;0.30;;;0.20;;
25559;SDS011;13450;49.374;8.584;2023-08-06T10:14:06;0.10;;;0.10;;
25559;SDS011;13450;49.374;8.584;2023-08-06T10:16:35;1.35;;;0.10;;
25559;SDS011;13450;49.374;8.584;2023-08-06T10:19:03;0.10;;;0.10;;
25559;SDS011;13450;49.374;8.584;2023-08-06T10:21:32;0.10;;;0.10;;
25559;SDS011;13450;49.374;8.584;2023-08-06T10:23:57;0.20;;;0.10;;
25559;SDS011;13450;49.374;8.584;2023-08-06T10:26:29;0.20;;;0.10;;
25559;SDS011;13450;49.374;8.584;2023-08-06T10:28:55;0.35;;;0.10;;
25559;SDS011;13450;49.374;8.584;2023-08-06T10:34:19;0.45;;;0.13;;
25559;SDS011;13450;49.374;8.584;2023-08-06T10:36:46;0.17;;;0.10;;
25559;SDS011;13450;49.374;8.584;2023-08-06T10:39:15;0.63;;;0.10;;
25559;SDS011;13450;49.374;8.584;2023-08-06T10:41:42;0.40;;;0.20;;
25559;SDS011;13450;49.374;8.584;2023-08-06T10:44:08;0.50;;;0.20;;
25559;SDS011;13450;49.374;8.584;2023-08-06T10:46:37;1.55;;;0.25;;
25559;SDS011;13450;49.374;8.584;2023-08-06T10:49:05;0.22;;;0.13;;
25559;SDS011;13450;49.374;8.584;2023-08-06T10:51:34;0.47;;;0.20;;
25559;SDS011;13450;49.374;8.584;2023-08-06T10:54:01;0.75;;;0.32;;
25559;SDS011;13450;49.374;8.584;2023-08-06T10:56:27;0.70;;;0.20;;
25559;SDS011;13450;49.374;8.584;2023-08-06T10:58:55;0.85;;;0.15;;
25559;SDS011;13450;49.374;8.584;2023-08-06T11:01:26;0.22;;;0.20;;
25559;SDS011;13450;49.374;8.584;2023-08-06T11:04:00;0.10;;;0.10;;
25559;SDS011;13450;49.374;8.584;2023-08-06T11:06:27;0.38;;;0.20;;
25559;SDS011;13450;49.374;8.584;2023-08-06T11:08:53;1.10;;;0.30;;
25559;SDS011;13450;49.374;8.584;2023-08-06T11:11:19;1.20;;;0.30;;
25559;SDS011;13450;49.374;8.584;2023-08-06T11:13:46;0.47;;;0.20;;
25559;SDS011;13450;49.374;8.584;2023-08-06T11:16:13;0.22;;;0.20;;
25559;SDS011;13450;49.374;8.584;2023-08-06T11:18:39;0.40;;;0.20;;
25559;SDS011;13450;49.374;8.584;2023-08-06T11:21:05;3.78;;;0.40;;
25559;SDS011;13450;49.374;8.584;2023-08-06T11:23:31;0.98;;;0.30;;
25559;SDS011;13450;49.374;8.584;2023-08-06T11:25:57;0.43;;;0.20;;
25559;SDS011;13450;49.374;8.584;2023-08-06T11:28:22;1.38;;;0.50;;
25559;SDS011;13450;49.374;8.584;2023-08-06T11:30:48;0.60;;;0.22;;
25559;SDS011;13450;49.374;8.584;2023-08-06T11:33:23;0.97;;;0.30;;
25559;SDS011;13450;49.374;8.584;2023-08-06T11:35:51;0.82;;;0.30;;
25559;SDS011;13450;49.374;8.584;2023-08-06T11:38:17;0.98;;;0.30;;
25559;SDS011;13450;49.374;8.584;2023-08-06T11:40:48;0.77;;;0.40;;
25559;SDS011;13450;49.374;8.584;2023-08-06T11:43:13;2.38;;;0.40;;
25559;SDS011;13450;49.374;8.584;2023-08-06T11:45:40;1.10;;;0.40;;
25559;SDS011;13450;49.374;8.584;2023-08-06T11:48:06;0.98;;;0.40;;
25559;SDS011;13450;49.374;8.584;2023-08-06T11:50:35;0.80;;;0.40;;
25559;SDS011;13450;49.374;8.584;2023-08-06T11:53:03;1.17;;;0.40;;
25559;SDS011;13450;49.374;8.584;2023-08-06T11:55:30;4.43;;;0.43;;
25559;SDS011;13450;49.374;8.584;2023-08-06T11:57:56;0.90;;;0.30;;
25559;SDS011;13450;49.374;8.584;2023-08-06T12:00:23;1.80;;;0.30;;
25559;SDS011;13450;49.374;8.584;2023-08-06T12:02:50;0.95;;;0.40;;
25559;SDS011;13450;49.374;8.584;2023-08-06T12:05:21;2.60;;;0.65;;
25559;SDS011;13450;49.374;8.584;2023-08-06T12:07:52;1.13;;;0.50;;
25559;SDS011;13450;49.374;8.584;2023-08-06T12:10:21;0.38;;;0.20;;
25559;SDS011;13450;49.374;8.584;2023-08-06T12:12:47;1.48;;;0.40;;
25559;SDS011;13450;49.374;8.584;2023-08-06T12:15:13;0.93;;;0.40;;
25559;SDS011;13450;49.374;8.584;2023-08-06T12:17:38;0.98;;;0.52;;
25559;SDS011;13450;49.374;8.584;2023-08-06T12:20:04;2.05;;;0.50;;
25559;SDS011;13450;49.374;8.584;2023-08-06T12:22:31;2.88;;;0.43;;
25559;SDS011;13450;49.374;8.584;2023-08-06T12:27:27;1.13;;;0.45;;
25559;SDS011;13450;49.374;8.584;2023-08-06T12:29:52;1.38;;;0.50;;
25559;SDS011;13450;49.374;8.584;2023-08-06T12:32:17;1.02;;;0.60;;
25559;SDS011;13450;49.374;8.584;2023-08-06T12:34:44;1.65;;;0.60;;
25559;SDS011;13450;49.374;8.584;2023-08-06T12:37:09;2.22;;;0.60;;
25559;SDS011;13450;49.374;8.584;2023-08-06T12:39:37;0.77;;;0.47;;
25559;SDS011;13450;49.374;8.584;2023-08-06T12:42:03;0.82;;;0.50;;
25559;SDS011;13450;49.374;8.584;2023-08-06T12:44:30;1.27;;;0.63;;
25559;SDS011;13450;49.374;8.584;2023-08-06T12:46:56;0.82;;;0.43;;
25559;SDS011;13450;49.374;8.584;2023-08-06T12:49:22;1.35;;;0.60;;
25559;SDS011;13450;49.374;8.584;2023-08-06T12:51:51;1.75;;;0.77;;
25559;SDS011;13450;49.374;8.584;2023-08-06T12:54:17;1.60;;;0.70;;
25559;SDS011;13450;49.374;8.584;2023-08-06T12:56:43;1.17;;;0.52;;
25559;SDS011;13450;49.374;8.584;2023-08-06T12:59:09;0.60;;;0.30;;
25559;SDS011;13450;49.374;8.584;2023-08-06T13:01:36;0.82;;;0.30;;
25559;SDS011;13450;49.374;8.584;2023-08-06T13:04:02;0.85;;;0.40;;
25559;SDS011;13450;49.374;8.584;2023-08-06T13:06:28;1.65;;;0.73;;
25559;SDS011;13450;49.374;8.584;2023-08-06T13:08:53;0.98;;;0.35;;
25559;SDS011;13450;49.374;8.584;2023-08-06T13:11:18;1.63;;;0.50;;
25559;SDS011;13450;49.374;8.584;2023-08-06T13:13:44;1.08;;;0.43;;
25559;SDS011;13450;49.374;8.584;2023-08-06T13:16:09;0.77;;;0.40;;
25559;SDS011;13450;49.374;8.584;2023-08-06T13:18:37;1.52;;;0.52;;
25559;SDS011;13450;49.374;8.584;2023-08-06T13:21:03;1.75;;;0.40;;
25559;SDS011;13450;49.374;8.584;2023-08-06T13:23:28;1.50;;;0.50;;
25559;SDS011;13450;49.374;8.584;2023-08-06T13:25:54;0.77;;;0.50;;
25559;SDS011;13450;49.374;8.584;2023-08-06T13:28:21;1.08;;;0.40;;
25559;SDS011;13450;49.374;8.584;2023-08-06T13:30:46;1.67;;;0.40;;
25559;SDS011;13450;49.374;8.584;2023-08-06T13:33:12;1.33;;;0.50;;
25559;SDS011;13450;49.374;8.584;2023-08-06T13:35:37;1.77;;;0.40;;
25559;SDS011;13450;49.374;8.584;2023-08-06T13:38:03;1.33;;;0.40;;
25559;SDS011;13450;49.374;8.584;2023-08-06T13:40:32;0.68;;;0.38;;
25559;SDS011;13450;49.374;8.584;2023-08-06T13:43:00;1.77;;;0.60;;
25559;SDS011;13450;49.374;8.584;2023-08-06T13:45:27;1.50;;;0.43;;
25559;SDS011;13450;49.374;8.584;2023-08-06T13:47:54;0.65;;;0.50;;
25559;SDS011;13450;49.374;8.584;2023-08-06T13:50:20;0.73;;;0.40;;
25559;SDS011;13450;49.374;8.584;2023-08-06T13:52:50;1.50;;;0.57;;
25559;SDS011;13450;49.374;8.584;2023-08-06T13:55:15;1.33;;;0.45;;
25559;SDS011;13450;49.374;8.584;2023-08-06T13:57:41;2.03;;;0.40;;
25559;SDS011;13450;49.374;8.584;2023-08-06T14:00:07;1.25;;;0.52;;
25559;SDS011;13450;49.374;8.584;2023-08-06T14:02:32;0.88;;;0.40;;
25559;SDS011;13450;49.374;8.584;2023-08-06T14:04:58;0.90;;;0.43;;
25559;SDS011;13450;49.374;8.584;2023-08-06T14:07:23;0.63;;;0.30;;
25559;SDS011;13450;49.374;8.584;2023-08-06T14:09:48;1.13;;;0.50;;
25559;SDS011;13450;49.374;8.584;2023-08-06T14:12:14;0.95;;;0.40;;
25559;SDS011;13450;49.374;8.584;2023-08-06T14:14:39;1.38;;;0.52;;
25559;SDS011;13450;49.374;8.584;2023-08-06T14:17:05;0.85;;;0.50;;
25559;SDS011;13450;49.374;8.584;2023-08-06T14:19:30;3.22;;;0.70;;
25559;SDS011;13450;49.374;8.584;2023-08-06T14:21:56;1.30;;;0.50;;
25559;SDS011;13450;49.374;8.584;2023-08-06T14:24:26;1.60;;;0.40;;
25559;SDS011;13450;49.374;8.584;2023-08-06T14:26:52;0.52;;;0.40;;
25559;SDS011;13450;49.374;8.584;2023-08-06T14:29:17;0.70;;;0.50;;
25559;SDS011;13450;49.374;8.584;2023-08-06T14:31:43;1.88;;;0.60;;
25559;SDS011;13450;49.374;8.584;2023-08-06T14:34:08;1.05;;;0.50;;
25559;SDS011;13450;49.374;8.584;2023-08-06T14:36:34;1.23;;;0.50;;
25559;SDS011;13450;49.374;8.584;2023-08-06T14:38:59;1.75;;;0.60;;
25559;SDS011;13450;49.374;8.584;2023-08-06T14:41:24;1.27;;;0.55;;
25559;SDS011;13450;49.374;8.584;2023-08-06T14:43:50;2.05;;;0.50;;
25559;SDS011;13450;49.374;8.584;2023-08-06T14:46:20;4.57;;;0.93;;
25559;SDS011;13450;49.374;8.584;2023-08-06T14:48:45;1.38;;;0.50;;
25559;SDS011;13450;49.374;8.584;2023-08-06T14:51:11;2.47;;;0.77;;
25559;SDS011;13450;49.374;8.584;2023-08-06T14:53:36;1.38;;;0.57;;
25559;SDS011;13450;49.374;8.584;2023-08-06T14:56:01;2.20;;;0.52;;
25559;SDS011;13450;49.374;8.584;2023-08-06T14:58:29;2.17;;;0.60;;
25559;SDS011;13450;49.374;8.584;2023-08-06T15:00:54;1.08;;;0.50;;
25559;SDS011;13450;49.374;8.584;2023-08-06T15:03:20;1.45;;;0.50;;
25559;SDS011;13450;49.374;8.584;2023-08-06T15:05:48;1.45;;;0.60;;
25559;SDS011;13450;49.374;8.584;2023-08-06T15:08:14;0.98;;;0.50;;
25559;SDS011;13450;49.374;8.584;2023-08-06T15:10:39;1.08;;;0.60;;
25559;SDS011;13450;49.374;8.584;2023-08-06T15:13:04;1.42;;;0.65;;